Time,TemperatureF,DewpointF,PressureIn,WindDirection,WindDirectionDegrees,WindSpeedMPH,WindSpeedGustMPH,Humidity,HourlyPrecipIn,Conditions,Clouds,dailyrainin,SoftwareType,DateUTC
2013-02-10 00:01:00,24.0,21.0,-100.00,ESE,120,6.0,9.0,91,0.00,,,-99.99,,2013-02-10 05:01:00,
2013-02-10 00:11:00,24.0,22.0,-100.00,SE,130,6.0,9.0,91,0.00,,,-99.99,,2013-02-10 05:11:00,
2013-02-10 00:22:00,24.0,22.0,-100.00,SE,130,7.0,8.0,91,0.00,,,-99.99,,2013-02-10 05:22:00,
2013-02-10 00:32:00,24.0,22.0,-100.00,SE,135,6.0,8.0,91,0.00,,,-99.99,,2013-02-10 05:32:00,
2013-02-10 00:41:00,24.0,22.0,-100.00,SE,130,6.0,8.0,91,0.00,,,-99.99,,2013-02-10 05:41:00,
2013-02-10 00:52:00,23.0,21.0,-100.00,SE,125,6.0,7.0,91,0.00,,,-99.99,,2013-02-10 05:52:00,
2013-02-10 01:02:00,23.0,21.0,-100.00,ESE,115,6.0,8.0,91,0.00,,,-99.99,,2013-02-10 06:02:00,
2013-02-10 01:11:00,22.0,20.0,-100.00,SE,125,7.0,8.0,91,0.00,,,-99.99,,2013-02-10 06:11:00,
2013-02-10 01:21:00,22.0,20.0,-100.00,SE,130,7.0,9.0,92,0.00,,,-99.99,,2013-02-10 06:21:00,
2013-02-10 01:32:00,22.0,20.0,-100.00,ESE,115,6.0,8.0,92,0.00,,,-99.99,,2013-02-10 06:32:00,
2013-02-10 01:42:00,22.0,20.0,-100.00,ESE,120,7.0,8.0,92,0.00,,,-99.99,,2013-02-10 06:42:00,
2013-02-10 01:51:00,22.0,20.0,-100.00,SE,130,6.0,7.0,92,0.00,,,-99.99,,2013-02-10 06:51:00,
2013-02-10 02:01:00,22.0,20.0,-100.00,SE,125,4.0,7.0,92,0.00,,,-99.99,,2013-02-10 07:01:00,
2013-02-10 02:11:00,22.0,20.0,-100.00,ESE,120,4.0,6.0,92,0.00,,,-99.99,,2013-02-10 07:11:00,
2013-02-10 02:21:00,21.0,19.0,-100.00,ESE,115,5.0,6.0,92,0.00,,,-99.99,,2013-02-10 07:21:00,
2013-02-10 02:32:00,21.0,19.0,-100.00,ESE,105,4.0,6.0,92,0.00,,,-99.99,,2013-02-10 07:32:00,
2013-02-10 02:42:00,21.0,19.0,-100.00,ESE,110,6.0,7.0,92,0.00,,,-99.99,,2013-02-10 07:42:00,
2013-02-10 02:51:00,21.0,20.0,-100.00,ESE,120,7.0,9.0,92,0.00,,,-99.99,,2013-02-10 07:51:00,
2013-02-10 03:01:00,22.0,21.0,-100.00,ESE,115,8.0,9.0,92,0.00,,,-99.99,,2013-02-10 08:01:00,
2013-02-10 03:11:00,23.0,21.0,-100.00,ESE,115,6.0,9.0,92,0.00,,,-99.99,,2013-02-10 08:11:00,
2013-02-10 03:21:00,23.0,21.0,-100.00,ESE,110,7.0,9.0,92,0.00,,,-99.99,,2013-02-10 08:21:00,
2013-02-10 03:32:00,23.0,21.0,-100.00,ESE,115,7.0,9.0,92,0.00,,,-99.99,,2013-02-10 08:32:00,
2013-02-10 03:43:00,23.0,21.0,-100.00,ESE,115,8.0,10.0,92,0.00,,,-99.99,,2013-02-10 08:43:00,
2013-02-10 03:52:00,23.0,21.0,-100.00,ESE,110,9.0,10.0,92,0.00,,,-99.99,,2013-02-10 08:52:00,
2013-02-10 04:02:00,24.0,22.0,-100.00,ESE,110,6.0,9.0,92,0.00,,,-99.99,,2013-02-10 09:02:00,
2013-02-10 04:11:00,24.0,22.0,-100.00,ESE,115,6.0,7.0,92,0.00,,,-99.99,,2013-02-10 09:11:00,
2013-02-10 04:21:00,24.0,22.0,-100.00,ESE,115,7.0,8.0,92,0.00,,,-99.99,,2013-02-10 09:21:00,
2013-02-10 04:32:00,24.0,22.0,-100.00,ESE,120,7.0,9.0,92,0.00,,,-99.99,,2013-02-10 09:32:00,
2013-02-10 04:41:00,24.0,22.0,-100.00,ESE,115,6.0,9.0,91,0.00,,,-99.99,,2013-02-10 09:41:00,
2013-02-10 04:51:00,24.0,22.0,-100.00,East,100,5.0,7.0,91,0.00,,,-99.99,,2013-02-10 09:51:00,
2013-02-10 05:01:00,24.0,22.0,-100.00,East,100,2.0,6.0,91,0.00,,,-99.99,,2013-02-10 10:01:00,
2013-02-10 05:11:00,24.0,21.0,-100.00,SE,135,1.0,3.0,91,0.00,,,-99.99,,2013-02-10 10:11:00,
2013-02-10 05:21:00,23.0,21.0,-100.00,SSE,150,2.0,2.0,91,0.00,,,-99.99,,2013-02-10 10:21:00,
2013-02-10 05:32:00,23.0,21.0,-100.00,East,95,2.0,2.0,91,0.00,,,-99.99,,2013-02-10 10:32:00,
2013-02-10 05:42:00,23.0,21.0,-100.00,East,95,4.0,4.0,91,0.00,,,-99.99,,2013-02-10 10:42:00,
2013-02-10 05:51:00,22.0,20.0,-100.00,East,90,4.0,4.0,92,0.00,,,-99.99,,2013-02-10 10:51:00,
2013-02-10 06:01:00,23.0,21.0,-100.00,ENE,75,3.0,4.0,92,0.00,,,-99.99,,2013-02-10 11:01:00,
2013-02-10 06:11:00,22.0,20.0,-100.00,East,80,4.0,4.0,92,0.00,,,-99.99,,2013-02-10 11:11:00,
2013-02-10 06:22:00,22.0,20.0,-100.00,East,85,7.0,7.0,92,0.00,,,-99.99,,2013-02-10 11:22:00,
2013-02-10 06:32:00,22.0,21.0,-100.00,East,95,4.0,7.0,92,0.00,,,-99.99,,2013-02-10 11:32:00,
2013-02-10 06:42:00,23.0,21.0,-100.00,East,80,6.0,7.0,93,0.00,,,-99.99,,2013-02-10 11:42:00,
2013-02-10 06:52:00,24.0,23.0,-100.00,East,90,6.0,7.0,93,0.00,,,-99.99,,2013-02-10 11:52:00,
2013-02-10 07:02:00,26.0,24.0,-100.00,East,90,6.0,7.0,93,0.00,,,-99.99,,2013-02-10 12:02:00,
2013-02-10 07:12:00,26.0,25.0,-100.00,ENE,75,7.0,9.0,93,0.00,,,-99.99,,2013-02-10 12:12:00,
2013-02-10 07:21:00,27.0,25.0,-100.00,East,80,7.0,10.0,92,0.00,,,-99.99,,2013-02-10 12:21:00,
2013-02-10 07:32:00,28.0,25.0,-100.00,ENE,65,7.0,11.0,90,0.00,,,-99.99,,2013-02-10 12:32:00,
2013-02-10 07:42:00,28.0,25.0,-100.00,SE,130,4.0,6.0,88,0.00,,,-99.99,,2013-02-10 12:42:00,
2013-02-10 07:52:00,28.0,25.0,-100.00,East,95,4.0,6.0,88,0.00,,,-99.99,,2013-02-10 12:52:00,
2013-02-10 08:02:00,28.0,25.0,-100.00,East,85,7.0,9.0,88,0.00,,,-99.99,,2013-02-10 13:02:00,
2013-02-10 08:11:00,28.0,25.0,-100.00,East,90,6.0,11.0,88,0.00,,,-99.99,,2013-02-10 13:11:00,
2013-02-10 08:21:00,29.0,25.0,-100.00,ESE,115,7.0,11.0,87,0.00,,,-99.99,,2013-02-10 13:21:00,
2013-02-10 08:31:00,29.0,25.0,-100.00,ESE,115,7.0,10.0,85,0.00,,,-99.99,,2013-02-10 13:31:00,
2013-02-10 08:41:00,29.0,25.0,-100.00,ESE,120,6.0,7.0,84,0.00,,,-99.99,,2013-02-10 13:41:00,
2013-02-10 08:51:00,30.0,25.0,-100.00,East,100,3.0,6.0,83,0.00,,,-99.99,,2013-02-10 13:51:00,
2013-02-10 09:02:00,30.0,26.0,-100.00,ESE,105,6.0,7.0,83,0.00,,,-99.99,,2013-02-10 14:02:00,
2013-02-10 09:11:00,30.0,26.0,-100.00,ESE,120,7.0,9.0,82,0.00,,,-99.99,,2013-02-10 14:11:00,
2013-02-10 09:21:00,30.0,26.0,-100.00,ESE,120,7.0,9.0,82,0.00,,,-99.99,,2013-02-10 14:21:00,
2013-02-10 09:32:00,31.0,26.0,-100.00,East,100,7.0,10.0,82,0.00,,,-99.99,,2013-02-10 14:32:00,
2013-02-10 09:41:00,32.0,27.0,-100.00,ESE,110,7.0,10.0,81,0.00,,,-99.99,,2013-02-10 14:41:00,
2013-02-10 09:52:00,32.0,27.0,-100.00,ESE,115,8.0,10.0,79,0.00,,,-99.99,,2013-02-10 14:52:00,
2013-02-10 10:02:00,33.0,27.0,-100.00,ESE,115,7.0,11.0,79,0.00,,,-99.99,,2013-02-10 15:02:00,
2013-02-10 10:11:00,33.0,27.0,-100.00,SE,130,6.0,8.0,78,0.00,,,-99.99,,2013-02-10 15:11:00,
2013-02-10 10:22:00,33.0,27.0,-100.00,SE,125,7.0,10.0,76,0.00,,,-99.99,,2013-02-10 15:22:00,
2013-02-10 10:32:00,34.0,27.0,-100.00,SE,145,9.0,11.0,75,0.00,,,-99.99,,2013-02-10 15:32:00,
2013-02-10 10:42:00,34.0,27.0,-100.00,SE,135,7.0,11.0,75,0.00,,,-99.99,,2013-02-10 15:42:00,
2013-02-10 10:52:00,34.0,27.0,-100.00,SSE,155,4.0,10.0,75,0.00,,,-99.99,,2013-02-10 15:52:00,
2013-02-10 11:02:00,35.0,27.0,-100.00,SE,145,6.0,8.0,73,0.00,,,-99.99,,2013-02-10 16:02:00,
2013-02-10 11:12:00,35.0,27.0,-100.00,SSE,150,7.0,9.0,73,0.00,,,-99.99,,2013-02-10 16:12:00,
2013-02-10 11:22:00,35.0,28.0,-100.00,SE,140,7.0,9.0,73,0.00,,,-99.99,,2013-02-10 16:22:00,
2013-02-10 11:32:00,35.0,28.0,-100.00,SSE,150,6.0,9.0,73,0.00,,,-99.99,,2013-02-10 16:32:00,
2013-02-10 11:42:00,35.0,28.0,-100.00,SE,140,9.0,10.0,73,0.00,,,-99.99,,2013-02-10 16:42:00,
2013-02-10 11:52:00,36.0,28.0,-100.00,SE,145,6.0,9.0,72,0.00,,,-99.99,,2013-02-10 16:52:00,
2013-02-10 12:02:00,36.0,28.0,-100.00,SE,140,7.0,9.0,71,0.00,,,-99.99,,2013-02-10 17:02:00,
2013-02-10 12:11:00,37.0,28.0,-100.00,SE,135,6.0,8.0,70,0.00,,,-99.99,,2013-02-10 17:11:00,
2013-02-10 12:22:00,38.0,29.0,-100.00,SE,125,6.0,9.0,68,0.00,,,-99.99,,2013-02-10 17:22:00,
2013-02-10 12:32:00,39.0,29.0,-100.00,ESE,120,7.0,9.0,67,0.00,,,-99.99,,2013-02-10 17:32:00,
2013-02-10 12:42:00,38.0,29.0,-100.00,SE,130,5.0,8.0,68,0.00,,,-99.99,,2013-02-10 17:42:00,
2013-02-10 12:52:00,38.0,29.0,-100.00,SE,140,4.0,6.0,68,0.00,,,-99.99,,2013-02-10 17:52:00,
2013-02-10 13:02:00,38.0,29.0,-100.00,SE,135,6.0,9.0,70,0.00,,,-99.99,,2013-02-10 18:02:00,
2013-02-10 13:12:00,38.0,29.0,-100.00,SE,135,7.0,10.0,69,0.00,,,-99.99,,2013-02-10 18:12:00,
2013-02-10 13:22:00,38.0,29.0,-100.00,SE,125,7.0,11.0,69,0.00,,,-99.99,,2013-02-10 18:22:00,
2013-02-10 13:32:00,39.0,29.0,-100.00,SE,130,8.0,12.0,69,0.00,,,-99.99,,2013-02-10 18:32:00,
2013-02-10 13:42:00,39.0,30.0,-100.00,SE,130,8.0,10.0,69,0.00,,,-99.99,,2013-02-10 18:42:00,
2013-02-10 13:52:00,39.0,30.0,-100.00,SE,130,9.0,11.0,70,0.00,,,-99.99,,2013-02-10 18:52:00,
2013-02-10 14:02:00,40.0,31.0,-100.00,SE,135,7.0,9.0,70,0.00,,,-99.99,,2013-02-10 19:02:00,
2013-02-10 14:12:00,40.0,31.0,-100.00,SE,145,8.0,11.0,70,0.00,,,-99.99,,2013-02-10 19:12:00,
2013-02-10 14:22:00,40.0,31.0,-100.00,SE,145,7.0,9.0,71,0.00,,,-99.99,,2013-02-10 19:22:00,
2013-02-10 14:32:00,40.0,32.0,-100.00,SE,135,6.0,9.0,71,0.00,,,-99.99,,2013-02-10 19:32:00,
2013-02-10 14:42:00,40.0,32.0,-100.00,SE,130,8.0,9.0,71,0.00,,,-99.99,,2013-02-10 19:42:00,
2013-02-10 14:52:00,40.0,31.0,-100.00,SE,135,9.0,11.0,71,0.00,,,-99.99,,2013-02-10 19:52:00,
2013-02-10 15:02:00,40.0,31.0,-100.00,SE,125,9.0,11.0,71,0.00,,,-99.99,,2013-02-10 20:02:00,
2013-02-10 15:11:00,40.0,32.0,-100.00,ESE,120,8.0,10.0,73,0.00,,,-99.99,,2013-02-10 20:11:00,
2013-02-10 15:22:00,39.0,32.0,-100.00,ESE,115,9.0,10.0,75,0.00,,,-99.99,,2013-02-10 20:22:00,
2013-02-10 15:32:00,39.0,33.0,-100.00,SE,125,9.0,12.0,77,0.00,,,-99.99,,2013-02-10 20:32:00,
2013-02-10 15:42:00,39.0,33.0,-100.00,SE,125,9.0,14.0,77,0.00,,,-99.99,,2013-02-10 20:42:00,
2013-02-10 15:52:00,39.0,33.0,-100.00,SE,135,7.0,13.0,77,0.00,,,-99.99,,2013-02-10 20:52:00,
2013-02-10 16:02:00,39.0,33.0,-100.00,SE,140,7.0,12.0,78,0.00,,,-99.99,,2013-02-10 21:02:00,
2013-02-10 16:11:00,39.0,33.0,-100.00,SE,135,9.0,12.0,79,0.00,,,-99.99,,2013-02-10 21:11:00,
2013-02-10 16:22:00,39.0,33.0,-100.00,SE,140,8.0,11.0,79,0.00,,,-99.99,,2013-02-10 21:22:00,
2013-02-10 16:32:00,39.0,33.0,-100.00,SE,135,8.0,12.0,79,0.00,,,-99.99,,2013-02-10 21:32:00,
2013-02-10 16:42:00,39.0,33.0,-100.00,ESE,115,8.0,11.0,79,0.00,,,-99.99,,2013-02-10 21:42:00,
2013-02-10 16:52:00,39.0,33.0,-100.00,ESE,120,12.0,13.0,80,0.00,,,-99.99,,2013-02-10 21:52:00,
2013-02-10 17:02:00,39.0,33.0,-100.00,ESE,110,10.0,14.0,81,0.00,,,-99.99,,2013-02-10 22:02:00,
2013-02-10 17:11:00,39.0,33.0,-100.00,ESE,110,10.0,14.0,81,0.00,,,-99.99,,2013-02-10 22:11:00,
2013-02-10 17:22:00,38.0,34.0,-100.00,SE,130,7.0,14.0,83,2.24,,,-99.99,,2013-02-10 22:22:00,
2013-02-10 17:32:00,38.0,34.0,-100.00,SE,125,7.0,11.0,83,0.00,,,-99.99,,2013-02-10 22:32:00,
2013-02-10 17:42:00,38.0,33.0,-100.00,ESE,120,10.0,11.0,83,0.00,,,-99.99,,2013-02-10 22:42:00,
2013-02-10 17:53:00,38.0,34.0,-100.00,ESE,110,8.0,13.0,84,2.24,,,-99.99,,2013-02-10 22:53:00,
2013-02-10 18:02:00,38.0,34.0,-100.00,ESE,115,7.0,10.0,85,3.39,,,-99.99,,2013-02-10 23:02:00,
2013-02-10 18:11:00,38.0,34.0,-100.00,East,100,7.0,10.0,85,1.10,,,-99.99,,2013-02-10 23:11:00,
2013-02-10 18:22:00,37.0,34.0,-100.00,ESE,120,8.0,11.0,86,0.00,,,-99.99,,2013-02-10 23:22:00,
2013-02-10 18:32:00,37.0,34.0,-100.00,ESE,115,9.0,12.0,86,0.00,,,-99.99,,2013-02-10 23:32:00,
2013-02-10 18:42:00,38.0,34.0,-100.00,SE,125,10.0,12.0,86,0.00,,,-99.99,,2013-02-10 23:42:00,
2013-02-10 18:52:00,38.0,34.0,-100.00,SE,140,9.0,15.0,83,0.00,,,-99.99,,2013-02-10 23:52:00,
2013-02-10 19:02:00,39.0,33.0,-100.00,SE,135,12.0,16.0,79,0.00,,,-99.99,,2013-02-11 00:02:00,
2013-02-10 19:11:00,39.0,33.0,-100.00,SE,130,12.0,17.0,77,0.00,,,-99.99,,2013-02-11 00:11:00,
2013-02-10 19:22:00,40.0,33.0,-100.00,SE,140,12.0,19.0,75,0.00,,,-99.99,,2013-02-11 00:22:00,
2013-02-10 19:32:00,40.0,33.0,-100.00,SE,135,12.0,17.0,74,0.00,,,-99.99,,2013-02-11 00:32:00,
2013-02-10 19:42:00,40.0,32.0,-100.00,SE,135,16.0,19.0,73,0.00,,,-99.99,,2013-02-11 00:42:00,
2013-02-10 19:51:00,40.0,32.0,-100.00,SE,135,16.0,20.0,72,0.00,,,-99.99,,2013-02-11 00:51:00,
2013-02-10 20:01:00,40.0,32.0,-100.00,SE,135,16.0,19.0,71,0.00,,,-99.99,,2013-02-11 01:01:00,
2013-02-10 20:11:00,40.0,32.0,-100.00,SE,135,17.0,21.0,70,0.00,,,-99.99,,2013-02-11 01:11:00,
2013-02-10 20:21:00,40.0,32.0,-100.00,SE,140,14.0,22.0,70,0.00,,,-99.99,,2013-02-11 01:21:00,
2013-02-10 20:32:00,40.0,32.0,-100.00,SSE,155,10.0,21.0,73,0.00,,,-99.99,,2013-02-11 01:32:00,
2013-02-10 20:42:00,40.0,32.0,-100.00,SSE,150,12.0,16.0,72,0.00,,,-99.99,,2013-02-11 01:42:00,
2013-02-10 20:52:00,40.0,32.0,-100.00,SSE,160,10.0,14.0,72,0.00,,,-99.99,,2013-02-11 01:52:00,
2013-02-10 21:01:00,40.0,32.0,-100.00,SE,145,12.0,14.0,74,0.00,,,-99.99,,2013-02-11 02:01:00,
2013-02-10 21:11:00,40.0,33.0,-100.00,SSE,150,10.0,16.0,74,0.55,,,-99.99,,2013-02-11 02:11:00,
2013-02-10 21:21:00,41.0,33.0,-100.00,South,170,9.0,15.0,73,0.00,,,-99.99,,2013-02-11 02:21:00,
2013-02-10 21:32:00,41.0,33.0,-100.00,SSE,165,9.0,14.0,74,0.00,,,-99.99,,2013-02-11 02:32:00,
2013-02-10 21:42:00,41.0,34.0,-100.00,South,175,9.0,12.0,75,0.00,,,-99.99,,2013-02-11 02:42:00,
2013-02-10 21:52:00,40.0,34.0,-100.00,South,180,8.0,11.0,78,0.00,,,-99.99,,2013-02-11 02:52:00,
2013-02-10 22:02:00,41.0,36.0,-100.00,South,180,7.0,11.0,82,1.69,,,-99.99,,2013-02-11 03:02:00,
2013-02-10 22:11:00,41.0,37.0,-100.00,South,175,9.0,12.0,84,0.00,,,-99.99,,2013-02-11 03:11:00,
2013-02-10 22:21:00,40.0,37.0,-100.00,South,175,10.0,12.0,88,0.00,,,-99.99,,2013-02-11 03:21:00,
2013-02-10 22:32:00,41.0,39.0,-100.00,South,180,9.0,14.0,90,0.00,,,-99.99,,2013-02-11 03:32:00,
2013-02-10 22:42:00,41.0,40.0,-100.00,South,170,11.0,14.0,92,0.00,,,-99.99,,2013-02-11 03:42:00,
2013-02-10 22:52:00,43.0,41.0,-100.00,South,190,10.0,16.0,94,0.00,,,-99.99,,2013-02-11 03:52:00,
2013-02-10 23:02:00,45.0,44.0,-100.00,South,185,16.0,25.0,95,0.00,,,-99.99,,2013-02-11 04:02:00,
2013-02-10 23:11:00,45.0,44.0,-100.00,South,190,16.0,22.0,96,0.00,,,-99.99,,2013-02-11 04:11:00,
2013-02-10 23:21:00,45.0,44.0,-100.00,South,190,16.0,22.0,96,0.00,,,-99.99,,2013-02-11 04:21:00,
2013-02-10 23:32:00,45.0,44.0,-100.00,SSW,200,15.0,21.0,96,0.00,,,-99.99,,2013-02-11 04:32:00,
2013-02-10 23:42:00,46.0,44.0,-100.00,South,185,15.0,22.0,96,0.00,,,-99.99,,2013-02-11 04:42:00,
2013-02-10 23:51:00,45.0,44.0,-100.00,South,190,14.0,23.0,96,0.00,,,-99.99,,2013-02-11 04:51:00,